Time;durP1;ratioP1;P1;durP2;ratioP2;P2;SDS_P1;SDS_P2;PMS_P1;PMS_P2;Temp;Humidity;BMP_temperature;BMP_pressure;BME280_temperature;BME280_humidity;BME280_pressure;Samples;Min_cycle;Max_cycle;Signal;HPM_P1;HPM_P2
2022/06/17 00:01:32;;;;;;;;;;;;;;;15.07;93.33;97866.03;10482025;28;20032;-57
2022/06/17 00:06:36;;;;;;;17.80;12.98;;;;;;;14.96;93.19;97854.00;10485573;28;19942;-57
2022/06/17 00:11:37;;;;;;;19.10;12.98;;;;;;;14.97;93.39;97865.34;10459077;28;20056;-57
2022/06/17 00:16:36;;;;;;;17.55;13.93;;;;;;;14.90;93.40;97863.72;10458435;28;20075;-57
2022/06/17 00:21:40;;;;;;;;;;;;;;;14.88;93.18;97863.72;10458626;28;20056;-57
2022/06/17 00:26:38;;;;;;;20.23;13.35;;;;;;;14.83;93.41;97874.25;10462141;28;19947;-57
2022/06/17 00:31:37;;;;;;;;;;;;;;;14.75;94.09;97870.88;10459515;28;20047;-57
2022/06/17 00:36:37;;;;;;;17.35;13.57;;;;;;;14.68;94.33;97876.22;10458016;28;20636;-57
2022/06/17 00:41:38;;;;;;;21.67;14.57;;;;;;;14.63;94.18;97865.84;10458196;28;20513;-57
2022/06/17 00:47:00;;;;;;;18.58;14.32;;;;;;;14.62;94.42;97874.56;10460594;28;20055;-57
2022/06/17 00:52:04;;;;;;;18.20;14.57;;;;;;;14.58;94.87;97867.66;10494962;28;20063;-57
2022/06/17 00:57:36;;;;;;;18.15;13.88;;;;;;;14.47;95.46;97870.41;10496427;28;20098;-57
2022/06/17 01:02:57;;;;;;;19.50;14.05;;;;;;;14.48;95.57;97861.72;10465069;28;20526;-57
2022/06/17 01:08:03;;;;;;;21.45;14.88;;;;;;;14.45;95.22;97866.09;10454329;28;20075;-57
2022/06/17 01:13:06;;;;;;;23.80;17.38;;;;;;;14.43;95.47;97853.09;10496028;28;20062;-57
2022/06/17 01:18:05;;;;;;;23.58;17.23;;;;;;;14.36;95.29;97848.84;10496259;28;20070;-57
2022/06/17 01:23:10;;;;;;;20.27;16.02;;;;;;;14.32;95.52;97837.56;10503605;28;20051;-57
2022/06/17 01:28:16;;;;;;;21.45;15.73;;;;;;;14.23;95.79;97836.84;10463861;28;20554;-57
2022/06/17 01:33:28;;;;;;;24.38;17.58;;;;;;;14.23;95.78;97842.94;10462062;28;20498;-57
2022/06/17 01:38:29;;;;;;;21.10;16.80;;;;;;;14.20;95.88;97841.22;10501142;28;20055;-57
2022/06/17 01:43:53;;;;;;;23.73;15.38;;;;;;;14.10;96.38;97844.88;10503343;28;20499;-57
2022/06/17 01:49:02;;;;;;;20.45;16.38;;;;;;;14.02;96.43;97835.41;10496611;28;20090;-57
2022/06/17 01:54:06;;;;;;;24.47;16.13;;;;;;;14.01;96.33;97834.56;10500779;28;20070;-57
2022/06/17 01:59:23;;;;;;;22.88;16.33;;;;;;;14.01;95.93;97831.06;10501645;28;20066;-57
2022/06/17 02:04:27;;;;;;;22.88;16.77;;;;;;;14.00;96.00;97832.81;10501381;28;20506;-57
2022/06/17 02:09:26;;;;;;;24.88;17.42;;;;;;;13.99;95.90;97837.16;10502330;28;20062;-57
2022/06/17 02:14:25;;;;;;;;;;;;;;;13.98;95.92;97831.97;10495566;28;20059;-57
2022/06/17 02:19:27;;;;;;;22.80;15.88;;;;;;;13.92;96.16;97843.34;10501738;28;19908;-57
2022/06/17 02:24:27;;;;;;;22.02;15.93;;;;;;;13.83;96.52;97812.16;10498335;28;20066;-57
2022/06/17 02:29:28;;;;;;;22.30;16.92;;;;;;;13.88;96.43;97823.41;10501153;28;20071;-57
2022/06/17 02:34:27;;;;;;;24.60;17.83;;;;;;;13.83;97.31;97830.44;10490946;28;20060;-57
2022/06/17 02:39:27;;;;;;;30.95;20.02;;;;;;;13.66;98.29;97816.75;10458884;28;20063;-57
2022/06/17 02:44:35;;;;;;;26.58;19.85;;;;;;;13.73;98.15;97826.22;10465739;28;20458;-57
2022/06/17 02:49:36;;;;;;;27.70;19.17;;;;;;;13.72;97.94;97829.69;10503325;28;20478;-57
2022/06/17 02:54:48;;;;;;;26.08;19.08;;;;;;;13.66;97.83;97819.34;10502125;28;20059;-57
2022/06/17 02:59:51;;;;;;;24.92;17.65;;;;;;;13.73;97.78;97834.03;10484963;28;20078;-57
2022/06/17 03:04:52;;;;;;;27.20;18.75;;;;;;;13.63;97.60;97821.97;10501514;28;20063;-57
2022/06/17 03:09:51;;;;;;;27.58;18.23;;;;;;;13.71;97.81;97851.44;10502536;28;20070;-56
2022/06/17 03:15:03;;;;;;;29.83;18.48;;;;;;;13.61;98.34;97845.47;10495814;28;20047;-57
2022/06/17 03:20:03;;;;;;;26.88;16.15;;;;;;;13.55;98.37;97845.53;10480896;28;20576;-57
2022/06/17 03:25:34;;;;;;;22.00;15.27;;;;;;;13.51;97.82;97849.88;10462671;28;20066;-57
2022/06/17 03:30:38;;;;;;;24.90;15.73;;;;;;;13.51;97.72;97847.28;10488570;28;20082;-57
2022/06/17 03:35:40;;;;;;;24.65;15.82;;;;;;;13.55;97.39;97843.78;10499207;28;20063;-57
2022/06/17 03:40:45;;;;;;;23.13;16.42;;;;;;;13.55;97.20;97845.53;10474769;28;20070;-57
2022/06/17 03:45:56;;;;;;;21.83;15.77;;;;;;;13.61;97.49;97850.69;10480827;28;20066;-57
2022/06/17 03:50:55;;;;;;;21.83;14.88;;;;;;;13.58;97.58;97850.72;10498557;28;20059;-57
2022/06/17 03:55:56;;;;;;;;;;;;;;;13.60;97.31;97856.78;10497661;28;20078;-57
2022/06/17 04:01:20;;;;;;;21.33;16.38;;;;;;;13.70;97.32;97854.91;10496221;28;19935;-57
2022/06/17 04:06:23;;;;;;;20.60;15.50;;;;;;;13.65;97.49;97870.63;10493929;28;20070;-57
2022/06/17 04:11:26;;;;;;;25.50;17.95;;;;;;;13.76;97.18;97873.13;10496719;28;20477;-57
2022/06/17 04:16:44;;;;;;;21.15;17.08;;;;;;;13.91;97.04;97870.34;10494590;28;20075;-57
2022/06/17 04:21:43;;;;;;;19.45;16.08;;;;;;;14.06;96.48;97879.69;10497266;28;20055;-59
2022/06/17 04:26:43;;;;;;;;;;;;;;;14.12;96.22;97890.03;10494091;28;20059;-57
2022/06/17 04:31:43;;;;;;;;;;;;;;;14.34;95.64;97885.41;10496044;28;19966;-57
2022/06/17 04:36:50;;;;;;;21.92;16.02;;;;;;;14.47;94.58;97882.63;10495324;28;19947;-59
2022/06/17 04:41:52;;;;;;;19.10;14.57;;;;;;;14.59;93.94;97882.44;10495400;28;20055;-57
2022/06/17 04:47:00;;;;;;;18.00;14.10;;;;;;;14.77;93.81;97871.72;10493501;28;20070;-57
2022/06/17 04:52:02;;;;;;;20.52;14.38;;;;;;;14.92;93.43;97867.13;10496241;28;20063;-57
2022/06/17 04:57:04;;;;;;;18.00;16.08;;;;;;;15.20;92.59;97862.31;10467651;28;20067;-57
2022/06/17 05:02:06;;;;;;;18.15;13.85;;;;;;;15.50;91.79;97857.41;10495567;28;20756;-57
2022/06/17 05:07:05;;;;;;;19.13;13.13;;;;;;;15.81;90.47;97865.53;10502577;28;20063;-57
2022/06/17 05:12:07;;;;;;;;;;;;;;;16.02;88.48;97857.25;10499548;28;20036;-57
2022/06/17 05:17:06;;;;;;;18.58;11.55;;;;;;;16.25;87.10;97848.88;10502449;28;20413;-57
2022/06/17 05:22:11;;;;;;;;;;;;;;;16.59;86.73;97849.91;10502775;28;20024;-57
2022/06/17 05:27:10;;;;;;;20.77;11.90;;;;;;;16.83;86.15;97845.84;10494743;28;19951;-57
2022/06/17 05:32:13;;;;;;;15.90;11.38;;;;;;;17.05;83.81;97838.28;10500530;28;20075;-57
2022/06/17 05:37:13;;;;;;;14.27;9.57;;;;;;;17.43;82.41;97849.56;10498486;28;20824;-57
2022/06/17 05:42:12;;;;;;;13.80;8.80;;;;;;;17.68;79.62;97836.59;10500752;28;20056;-57
2022/06/17 05:47:11;;;;;;;10.85;8.00;;;;;;;17.90;77.10;97837.75;10500378;28;20089;-57
2022/06/17 05:52:10;;;;;;;13.35;8.55;;;;;;;18.02;75.51;97805.00;10503954;28;20313;-57
2022/06/17 05:57:09;;;;;;;14.63;8.27;;;;;;;18.55;75.73;97834.03;10502091;28;20023;-57
2022/06/17 06:02:11;;;;;;;10.73;8.07;;;;;;;18.78;72.69;97820.19;10503276;28;20043;-57
2022/06/17 06:07:10;;;;;;;11.00;8.13;;;;;;;19.05;72.67;97820.16;10471515;28;20063;-57
2022/06/17 06:12:10;;;;;;;10.27;6.80;;;;;;;19.29;69.26;97810.53;10502002;28;20028;-57
2022/06/17 06:17:11;;;;;;;8.48;6.40;;;;;;;19.61;67.38;97821.75;10502316;28;20070;-58
2022/06/17 06:22:10;;;;;;;15.73;7.55;;;;;;;19.86;65.19;97801.47;10502863;28;20074;-59
2022/06/17 06:27:09;;;;;;;9.63;6.97;;;;;;;20.23;63.84;97804.47;10488437;28;20115;-59
2022/06/17 06:32:10;;;;;;;8.90;7.40;;;;;;;20.59;65.41;97807.47;10482272;28;20183;-59
2022/06/17 06:37:09;;;;;;;11.82;7.03;;;;;;;20.81;63.99;97799.50;10456894;28;20055;-58
2022/06/17 06:42:08;;;;;;;12.48;6.63;;;;;;;21.01;61.68;97795.16;10452358;28;20089;-58
2022/06/17 06:47:07;;;;;;;9.07;6.78;;;;;;;21.10;60.92;97800.94;10459518;28;20064;-58
2022/06/17 06:52:06;;;;;;;14.52;7.30;;;;;;;21.22;63.08;97781.09;10440397;28;20036;-58
2022/06/17 06:57:06;;;;;;;13.88;6.75;;;;;;;21.39;62.20;97780.34;10400833;28;21003;-58
2022/06/17 07:02:05;;;;;;;7.68;6.75;;;;;;;21.50;61.51;97783.38;10485744;28;20518;-58
2022/06/17 07:07:05;;;;;;;8.63;5.88;;;;;;;21.67;59.05;97787.03;10442189;28;20075;-58
2022/06/17 07:12:04;;;;;;;10.13;6.38;;;;;;;21.91;60.87;97780.63;10457933;28;20062;-58
2022/06/17 07:17:04;;;;;;;7.57;5.97;;;;;;;22.26;59.74;97790.50;10454463;28;20063;-58
2022/06/17 07:22:03;;;;;;;9.00;5.97;;;;;;;22.47;57.51;97785.97;10435633;28;20060;-58
2022/06/17 07:27:02;;;;;;;6.25;5.25;;;;;;;22.67;57.29;97767.34;10401941;28;20064;-58
2022/06/17 07:32:02;;;;;;;7.53;4.28;;;;;;;22.90;56.23;97775.94;10435852;28;20072;-59
2022/06/17 07:42:18;;;;;;;5.43;3.90;;;;;;;23.32;51.76;97762.28;10449617;28;20063;-58
2022/06/17 07:47:20;;;;;;;6.35;4.20;;;;;;;23.52;49.98;97765.72;10489592;28;20119;-58
2022/06/17 07:52:19;;;;;;;6.45;5.28;;;;;;;23.73;52.37;97761.06;10464111;28;20066;-59
2022/06/17 07:57:18;;;;;;;8.18;5.25;;;;;;;23.91;49.37;97756.53;10478643;28;20038;-58
2022/06/17 08:02:17;;;;;;;8.27;5.97;;;;;;;24.12;50.34;97763.28;10460434;28;20030;-59
2022/06/17 08:07:16;;;;;;;7.78;5.07;;;;;;;24.38;49.56;97764.53;10456235;28;20032;-58
2022/06/17 08:12:15;;;;;;;6.28;4.45;;;;;;;24.56;47.44;97765.25;10475486;28;20068;-59
2022/06/17 08:17:16;;;;;;;7.05;5.97;;;;;;;24.69;45.77;97762.75;10496811;28;20036;-58
2022/06/17 08:22:17;;;;;;;8.45;6.30;;;;;;;24.80;45.91;97756.81;10463937;28;20051;-58
2022/06/17 08:27:16;;;;;;;8.55;6.10;;;;;;;24.90;45.79;97752.72;10461907;28;20059;-58
2022/06/17 08:37:33;;;;;;;10.45;7.10;;;;;;;25.01;43.99;97746.75;10473816;28;20062;-59
2022/06/17 08:42:52;;;;;;;9.93;6.70;;;;;;;25.12;40.50;97739.00;10503235;28;20481;-59
2022/06/17 08:48:56;;;;;;;9.73;6.82;;;;;;;25.27;40.67;97742.50;10503414;28;20051;-59
2022/06/17 08:54:29;;;;;;;8.57;6.15;;;;;;;25.22;39.12;97732.19;10434667;28;20067;-59
2022/06/17 09:00:03;;;;;;;10.30;6.65;;;;;;;25.21;39.33;97732.28;10502590;28;20051;-59
2022/06/17 09:05:27;;;;;;;7.65;6.40;;;;;;;25.57;40.56;97744.28;10504648;28;20073;-58
2022/06/17 09:10:47;;;;;;;8.02;6.03;;;;;;;25.56;39.83;97740.75;10497734;28;20062;-59
2022/06/17 09:15:50;;;;;;;8.50;6.47;;;;;;;25.27;40.19;97735.41;10504165;28;20059;-59
2022/06/17 09:20:55;;;;;;;10.98;6.68;;;;;;;25.19;40.03;97734.16;10496134;28;20051;-59
2022/06/17 09:25:56;;;;;;;8.13;6.40;;;;;;;25.35;40.50;97739.41;10504131;28;20066;-58
2022/06/17 09:31:05;;;;;;;8.95;5.97;;;;;;;25.33;38.58;97727.06;10502353;28;20180;-59
2022/06/17 09:36:21;;;;;;;6.43;5.78;;;;;;;25.55;38.17;97738.19;10501772;28;20051;-59
2022/06/17 09:41:39;;;;;;;6.60;5.53;;;;;;;25.65;37.28;97742.00;10501675;28;20055;-59
2022/06/17 09:46:50;;;;;;;6.72;5.28;;;;;;;25.58;37.93;97749.50;10486319;27;20491;-59
2022/06/17 09:51:58;;;;;;;7.22;5.03;;;;;;;25.96;37.59;97727.63;10476403;28;20759;-59
2022/06/17 09:57:01;;;;;;;;;;;;;;;25.99;38.29;97737.19;10498323;28;20522;-58
2022/06/17 10:02:31;;;;;;;7.97;5.38;;;;;;;25.94;36.91;97742.81;10500179;28;19958;-58
2022/06/17 10:08:02;;;;;;;6.43;5.35;;;;;;;26.07;36.89;97727.78;10493023;28;20549;-59
2022/06/17 10:13:30;;;;;;;7.50;5.65;;;;;;;26.26;36.31;97731.94;10437334;28;20070;-58
2022/06/17 10:19:00;;;;;;;6.85;5.13;;;;;;;26.21;37.03;97720.75;10499034;28;20047;-59
2022/06/17 10:24:10;;;;;;;6.78;4.80;;;;;;;26.30;35.55;97726.34;10499039;28;20112;-59
2022/06/17 10:29:27;;;;;;;6.30;5.70;;;;;;;26.54;37.27;97721.19;10500627;28;20696;-58
2022/06/17 10:34:31;;;;;;;9.88;5.57;;;;;;;26.74;36.98;97711.00;10500710;28;20062;-59
2022/06/17 10:39:33;;;;;;;6.20;5.00;;;;;;;27.05;36.21;97727.59;10492346;28;20043;-59
2022/06/17 10:44:32;;;;;;;7.30;5.38;;;;;;;26.81;36.58;97722.09;10468229;28;20464;-59
2022/06/17 10:49:38;;;;;;;6.57;5.68;;;;;;;26.86;36.42;97714.69;10502103;28;20048;-58
2022/06/17 10:54:38;;;;;;;8.30;5.75;;;;;;;26.80;35.64;97713.25;10501880;28;20069;-58
2022/06/17 10:59:41;;;;;;;7.43;5.72;;;;;;;26.97;36.51;97718.31;10501911;28;20113;-58
2022/06/17 11:04:49;;;;;;;7.55;6.18;;;;;;;27.13;35.82;97707.47;10501767;28;20065;-58
2022/06/17 11:09:51;;;;;;;;;;;;;;;27.25;36.45;97716.41;10482989;28;20063;-58
2022/06/17 11:14:56;;;;;;;6.10;5.50;;;;;;;27.46;35.71;97719.41;10493297;28;20386;-59
2022/06/17 11:20:02;;;;;;;8.98;6.38;;;;;;;28.03;35.88;97707.34;10497531;28;20051;-59
2022/06/17 11:25:06;;;;;;;6.72;5.10;;;;;;;28.53;34.46;97712.63;10500096;28;20066;-58
2022/06/17 11:30:31;;;;;;;6.50;4.55;;;;;;;28.30;33.49;97704.50;10499141;28;20075;-58
2022/06/17 11:35:33;;;;;;;6.05;5.03;;;;;;;28.25;33.11;97712.84;10475005;28;20482;-59
2022/06/17 11:40:36;;;;;;;7.85;5.45;;;;;;;27.98;33.29;97697.00;10480164;28;20051;-58
2022/06/17 11:45:39;;;;;;;4.85;4.30;;;;;;;28.07;33.95;97679.53;10478280;28;20068;-58
2022/06/17 11:50:42;;;;;;;4.90;4.25;;;;;;;27.79;33.76;97702.84;10463708;28;20157;-59
2022/06/17 11:55:46;;;;;;;5.35;4.45;;;;;;;27.69;34.48;97698.28;10477125;28;20059;-59
2022/06/17 12:00:51;;;;;;;5.78;4.97;;;;;;;27.54;35.43;97694.88;10493356;28;20074;-59
2022/06/17 12:05:59;;;;;;;6.05;4.80;;;;;;;27.50;34.25;97693.41;10491347;28;20056;-58
2022/06/17 12:11:01;;;;;;;;;;;;;;;27.57;35.11;97689.34;10474128;28;20068;-59
2022/06/17 12:16:26;;;;;;;6.68;4.40;;;;;;;27.75;36.24;97682.72;10476600;28;19954;-59
2022/06/17 12:21:29;;;;;;;5.20;4.38;;;;;;;27.75;36.08;97679.16;10469263;28;20063;-59
2022/06/17 12:26:33;;;;;;;6.22;4.55;;;;;;;27.70;35.24;97675.97;10462634;28;20463;-58
2022/06/17 12:31:40;;;;;;;7.38;4.55;;;;;;;27.69;35.32;97676.97;10462298;28;20075;-59
2022/06/17 12:36:50;;;;;;;6.35;4.07;;;;;;;27.52;34.74;97664.84;10455368;28;20064;-59
2022/06/17 12:41:57;;;;;;;5.28;4.15;;;;;;;27.61;33.48;97665.03;10456344;28;20071;-59
2022/06/17 12:47:30;;;;;;;5.70;4.90;;;;;;;27.39;35.40;97671.00;10475210;28;20074;-58
2022/06/17 12:58:15;;;;;;;4.88;4.30;;;;;;;27.14;34.81;97661.25;10494679;28;20059;-59
2022/06/17 13:03:35;;;;;;;6.20;4.63;;;;;;;27.51;34.82;97669.31;10481305;28;20055;-58
2022/06/17 13:09:15;;;;;;;5.95;4.72;;;;;;;27.41;36.08;97674.41;10486287;28;20059;-59
2022/06/17 13:14:23;;;;;;;6.97;4.97;;;;;;;27.30;37.70;97671.66;10463579;28;20075;-59
2022/06/17 13:19:44;;;;;;;6.05;4.90;;;;;;;27.37;39.25;97670.25;10486162;28;20474;-58
2022/06/17 13:25:06;;;;;;;6.00;5.00;;;;;;;27.14;39.05;97671.00;10477966;28;20056;-58
2022/06/17 13:30:05;;;;;;;5.35;4.57;;;;;;;26.99;38.49;97672.94;10499966;27;20130;-58
2022/06/17 13:35:27;;;;;;;4.78;4.28;;;;;;;26.95;37.68;97676.78;10502032;27;20056;-59
2022/06/17 13:40:33;;;;;;;7.50;4.68;;;;;;;26.41;38.48;97660.91;10463355;27;20063;-59
2022/06/17 13:46:15;;;;;;;7.10;5.43;;;;;;;26.37;39.16;97676.22;10475534;28;20051;-59
2022/06/17 13:51:40;;;;;;;7.78;5.30;;;;;;;26.04;40.55;97674.81;10409330;28;20075;-58
2022/06/17 13:56:51;;;;;;;6.78;5.22;;;;;;;26.12;40.71;97676.97;10464021;28;20059;-58
2022/06/17 14:01:50;;;;;;;6.53;5.20;;;;;;;25.82;41.71;97669.16;10492604;28;20047;-59
2022/06/17 14:06:49;;;;;;;8.52;5.60;;;;;;;25.65;43.16;97673.75;10503614;28;20051;-59
2022/06/17 14:11:48;;;;;;;6.78;5.53;;;;;;;25.42;44.55;97683.13;10504132;28;20051;-58
2022/06/17 14:17:02;;;;;;;8.82;6.20;;;;;;;25.35;44.55;97683.63;10492402;28;20058;-58
2022/06/17 14:22:02;;;;;;;9.48;5.95;;;;;;;25.10;45.64;97677.16;10499446;28;20059;-58
2022/06/17 14:27:02;;;;;;;6.95;5.63;;;;;;;25.05;46.30;97672.13;10503228;28;20061;-59
2022/06/17 14:32:44;;;;;;;7.82;6.00;;;;;;;24.96;45.29;97664.72;10475674;28;20067;-59
2022/06/17 14:37:47;;;;;;;12.05;6.18;;;;;;;24.92;45.94;97678.28;10471444;28;20078;-58
2022/06/17 14:43:11;;;;;;;8.48;5.85;;;;;;;24.91;45.62;97677.44;10540068;27;20023;-59
2022/06/17 14:48:10;;;;;;;8.02;6.28;;;;;;;24.97;45.67;97682.38;10506021;27;20058;-58
2022/06/17 14:53:12;;;;;;;8.27;6.47;;;;;;;24.76;46.01;97684.50;10496375;28;20027;-58
2022/06/17 14:58:14;;;;;;;9.15;6.43;;;;;;;24.52;46.90;97677.97;10497933;28;20128;-58
2022/06/17 15:03:16;;;;;;;7.07;6.05;;;;;;;24.40;48.09;97693.69;10500306;28;20055;-58
2022/06/17 15:08:15;;;;;;;9.15;5.55;;;;;;;24.04;50.14;97692.13;10462550;28;20071;-58
2022/06/17 15:18:37;;;;;;;7.18;6.00;;;;;;;23.79;50.81;97699.75;10457300;28;20498;-58
2022/06/17 15:24:07;;;;;;;10.63;5.97;;;;;;;23.68;51.38;97704.78;10456048;28;20075;-58
2022/06/17 15:29:18;;;;;;;7.78;5.80;;;;;;;23.67;50.72;97705.75;10456817;28;20491;-58
2022/06/17 15:34:23;;;;;;;7.40;5.88;;;;;;;23.75;50.40;97716.78;10456459;28;20060;-58
2022/06/17 15:39:29;;;;;;;8.30;5.68;;;;;;;23.85;49.33;97728.56;10439538;28;20062;-58
2022/06/17 15:44:38;;;;;;;7.55;5.60;;;;;;;23.81;49.36;97750.88;10435937;28;20067;-58
2022/06/17 15:49:43;;;;;;;7.53;5.07;;;;;;;23.32;49.08;97756.13;10436680;28;20062;-58
2022/06/17 15:54:44;;;;;;;6.35;5.57;;;;;;;23.17;49.93;97756.00;10451969;28;20063;-58
2022/06/17 15:59:47;;;;;;;8.07;4.60;;;;;;;22.79;50.03;97748.22;10465202;28;20077;-59
2022/06/17 16:04:46;;;;;;;5.00;4.38;;;;;;;22.47;49.10;97749.81;10497986;28;20466;-58
2022/06/17 16:10:06;;;;;;;5.00;4.22;;;;;;;22.40;49.67;97745.75;10490052;28;20520;-58
2022/06/17 16:15:28;;;;;;;7.18;4.70;;;;;;;22.64;50.11;97748.09;10451858;28;20562;-58
2022/06/17 16:20:35;;;;;;;4.35;3.72;;;;;;;22.47;47.15;97741.88;10408851;28;20570;-58
2022/06/17 16:25:36;;;;;;;6.10;4.57;;;;;;;22.50;47.94;97740.84;10454787;28;20059;-58
2022/06/17 16:30:56;;;;;;;5.68;3.90;;;;;;;22.39;47.59;97752.84;10479366;28;20071;-58
2022/06/17 16:35:58;;;;;;;8.45;5.07;;;;;;;22.18;47.79;97754.72;10491499;28;20070;-58
2022/06/17 16:46:31;;;;;;;5.28;3.42;;;;;;;22.04;48.09;97741.31;10495407;28;20067;-58
2022/06/17 16:51:31;;;;;;;4.43;3.72;;;;;;;22.08;47.50;97752.59;10490263;28;20067;-58
2022/06/17 16:56:31;;;;;;;3.92;3.20;;;;;;;22.20;48.13;97759.06;10462592;28;20572;-58
2022/06/17 17:01:30;;;;;;;4.13;3.00;;;;;;;22.31;48.03;97754.13;10493312;28;20074;-58
2022/06/17 17:06:29;;;;;;;4.00;3.20;;;;;;;22.32;48.69;97751.41;10503711;28;20031;-58
2022/06/17 17:11:28;;;;;;;3.97;3.45;;;;;;;22.28;47.50;97739.28;10487773;28;20028;-58
2022/06/17 17:16:31;;;;;;;4.50;3.65;;;;;;;22.35;46.96;97751.25;10462328;28;20024;-58
2022/06/17 17:21:32;;;;;;;6.47;3.65;;;;;;;22.34;48.74;97744.28;10487276;28;20063;-58
2022/06/17 17:26:31;;;;;;;5.70;3.90;;;;;;;22.32;48.61;97754.06;10465711;28;20067;-58
2022/06/17 17:31:31;;;;;;;6.65;4.35;;;;;;;22.27;48.55;97749.91;10461366;28;20048;-58
2022/06/17 17:36:30;;;;;;;6.38;4.18;;;;;;;22.28;48.58;97746.34;10460912;28;20056;-58
2022/06/17 17:41:33;;;;;;;5.90;4.40;;;;;;;22.03;49.26;97760.72;10489759;28;20118;-58
2022/06/17 17:46:34;;;;;;;8.90;4.60;;;;;;;21.74;51.82;97760.28;10503687;28;20074;-58
2022/06/17 17:51:34;;;;;;;7.32;5.30;;;;;;;21.72;51.92;97764.78;10503079;28;20097;-58
2022/06/17 17:56:33;;;;;;;8.13;4.78;;;;;;;21.74;52.44;97756.78;10501471;28;20055;-58
2022/06/17 18:01:42;;;;;;;6.97;4.60;;;;;;;21.26;56.65;97756.28;10501163;28;20069;-58
2022/06/17 18:06:42;;;;;;;6.47;3.80;;;;;;;20.99;55.98;97763.59;10474367;28;20064;-58
2022/06/17 18:11:45;;;;;;;3.72;3.00;;;;;;;20.63;55.57;97780.06;10460123;28;20060;-58
2022/06/17 18:16:45;;;;;;;4.43;3.20;;;;;;;20.42;56.25;97768.59;10478062;28;20063;-58
2022/06/17 18:21:44;;;;;;;3.53;2.70;;;;;;;20.47;56.35;97778.97;10458862;28;20067;-58
2022/06/17 18:26:51;;;;;;;3.67;3.05;;;;;;;20.40;56.41;97774.81;10459823;28;20447;-58
2022/06/17 18:31:51;;;;;;;5.18;3.13;;;;;;;20.27;57.76;97782.34;10457727;28;20115;-58
2022/06/17 18:36:50;;;;;;;7.57;5.53;;;;;;;20.14;58.60;97792.53;10478095;28;20059;-58
2022/06/17 18:47:13;;;;;;;10.00;7.45;;;;;;;19.93;59.53;97803.88;10498261;28;20063;-58
2022/06/17 18:52:14;;;;;;;11.73;8.27;;;;;;;19.85;60.84;97812.06;10502846;28;20063;-58
2022/06/17 18:57:13;;;;;;;11.43;8.27;;;;;;;19.77;61.28;97808.88;10497539;28;20050;-58
2022/06/17 19:02:18;;;;;;;10.90;8.05;;;;;;;19.75;62.29;97808.91;10503000;28;20047;-58
2022/06/17 19:07:19;;;;;;;8.75;6.63;;;;;;;19.53;62.42;97802.69;10472965;28;20048;-58
2022/06/17 19:17:22;;;;;;;8.20;6.00;;;;;;;19.47;63.40;97831.88;10473467;28;20598;-58
2022/06/17 19:17:46;;;;;;;7.50;5.60;;;;;;;19.36;64.08;97835.72;10502435;28;20053;-58
2022/06/17 19:23:14;;;;;;;6.78;5.00;;;;;;;19.28;64.34;97835.16;10501309;28;20164;-58
2022/06/17 19:28:13;;;;;;;7.68;5.53;;;;;;;19.19;65.28;97830.19;10502014;28;20048;-58
2022/06/17 19:33:13;;;;;;;10.68;5.25;;;;;;;19.05;65.50;97822.78;10477862;28;20067;-58
2022/06/17 19:38:24;;;;;;;8.85;5.82;;;;;;;18.93;66.63;97837.19;10465182;28;20066;-58
2022/06/17 19:43:23;;;;;;;8.85;5.43;;;;;;;18.86;67.97;97840.94;10468283;28;20059;-58
2022/06/17 19:48:23;;;;;;;8.30;5.68;;;;;;;18.74;68.44;97844.00;10457413;28;20074;-58
2022/06/17 19:53:22;;;;;;;10.73;5.88;;;;;;;18.69;68.93;97851.13;10455642;28;20724;-58
2022/06/17 19:58:21;;;;;;;12.60;5.70;;;;;;;18.58;68.13;97848.84;10469390;28;20070;-58
2022/06/17 20:03:22;;;;;;;9.20;5.97;;;;;;;18.34;67.85;97824.19;10496074;28;20023;-58
2022/06/17 20:08:21;;;;;;;9.85;7.47;;;;;;;18.32;69.20;97847.03;10459106;28;20063;-58
2022/06/17 20:13:23;;;;;;;11.98;8.25;;;;;;;18.21;70.60;97828.94;10455389;28;20097;-58
2022/06/17 20:18:23;;;;;;;8.93;5.20;;;;;;;18.13;70.84;97834.44;10457056;28;20067;-58
2022/06/17 20:23:22;;;;;;;11.43;6.18;;;;;;;18.03;70.68;97840.84;10504411;28;20474;-58
2022/06/17 20:28:21;;;;;;;9.57;6.40;;;;;;;17.90;70.66;97839.53;10505922;28;20489;-58
2022/06/17 20:33:20;;;;;;;11.85;6.63;;;;;;;17.81;71.23;97840.63;10505875;28;20063;-58
2022/06/17 20:38:21;;;;;;;10.05;6.60;;;;;;;17.66;72.21;97848.91;10472869;28;20024;-58
2022/06/17 20:43:20;;;;;;;12.35;7.40;;;;;;;17.62;72.84;97842.91;10504894;28;20506;-58
2022/06/17 20:53:38;;;;;;;8.30;6.68;;;;;;;17.37;76.23;97853.19;10504477;28;20059;-58
2022/06/17 20:58:37;;;;;;;10.38;7.28;;;;;;;17.35;76.51;97855.88;10501863;28;20067;-58
2022/06/17 21:03:39;;;;;;;9.80;7.22;;;;;;;17.29;77.11;97842.91;10502867;28;20016;-58
2022/06/17 21:08:40;;;;;;;9.98;7.05;;;;;;;17.31;77.28;97842.88;10504628;28;20066;-58
2022/06/17 21:13:42;;;;;;;12.68;7.85;;;;;;;17.24;77.99;97850.03;10504294;28;20063;-58
2022/06/17 21:18:42;;;;;;;9.50;6.72;;;;;;;17.14;79.16;97846.81;10502061;28;20066;-58
2022/06/17 21:23:44;;;;;;;9.90;7.40;;;;;;;17.12;79.18;97852.97;10501574;28;20059;-58
2022/06/17 21:28:43;;;;;;;8.45;6.60;;;;;;;17.11;79.19;97843.38;10502830;28;20067;-58
2022/06/17 21:33:42;;;;;;;11.35;6.90;;;;;;;17.17;78.75;97847.59;10498342;28;20074;-58
2022/06/17 21:39:07;;;;;;;9.05;7.25;;;;;;;17.18;78.70;97855.44;10503265;28;20089;-58
2022/06/17 21:44:14;;;;;;;11.25;7.13;;;;;;;17.18;78.88;97863.31;10503365;28;20059;-58
2022/06/17 21:49:16;;;;;;;11.18;7.50;;;;;;;17.17;79.37;97852.84;10501915;28;20490;-58
2022/06/17 21:54:18;;;;;;;10.13;6.47;;;;;;;16.99;81.36;97856.81;10500948;28;20106;-58
2022/06/17 21:59:30;;;;;;;12.40;7.45;;;;;;;16.97;81.24;97856.84;10491627;28;20067;-58
2022/06/17 22:04:29;;;;;;;11.55;7.78;;;;;;;17.00;80.87;97862.00;10459696;28;20056;-58
2022/06/17 22:09:31;;;;;;;10.88;6.85;;;;;;;16.91;81.09;97865.75;10475212;28;20055;-58
2022/06/17 22:14:34;;;;;;;10.65;7.32;;;;;;;16.69;81.82;97870.59;10496618;28;20059;-57
2022/06/17 22:19:36;;;;;;;10.18;7.28;;;;;;;16.63;81.87;97872.47;10501769;28;20051;-58
2022/06/17 22:24:35;;;;;;;13.48;8.40;;;;;;;16.57;82.14;97862.16;10501767;28;20048;-58
2022/06/17 22:29:37;;;;;;;12.95;8.98;;;;;;;16.36;83.37;97864.38;10499287;28;20083;-58
2022/06/17 22:34:36;;;;;;;11.55;8.07;;;;;;;16.32;83.70;97864.47;10499357;28;20066;-58
2022/06/17 22:39:35;;;;;;;12.07;7.95;;;;;;;16.33;83.71;97863.59;10501307;28;20055;-58
2022/06/17 22:44:34;;;;;;;;;;;;;;;16.22;84.21;97863.81;10501162;28;20102;-58
2022/06/17 22:49:34;;;;;;;10.52;7.18;;;;;;;16.04;85.46;97865.97;10497654;28;19955;-58
2022/06/17 22:54:33;;;;;;;10.50;7.07;;;;;;;15.99;84.93;97852.06;10500521;28;20062;-58
2022/06/17 22:59:33;;;;;;;;;;;;;;;15.98;85.00;97875.69;10488214;28;20032;-58
2022/06/17 23:09:51;;;;;;;11.95;7.72;;;;;;;15.62;87.09;97871.13;10457199;28;20470;-58
2022/06/17 23:14:53;;;;;;;10.90;7.78;;;;;;;15.42;87.74;97881.09;10455412;28;20064;-58
2022/06/17 23:19:59;;;;;;;11.63;8.02;;;;;;;15.19;89.30;97876.28;10475704;28;20066;-58
2022/06/17 23:25:00;;;;;;;15.88;8.20;;;;;;;15.07;89.70;97887.81;10499228;28;20054;-58
2022/06/17 23:29:59;;;;;;;11.68;8.43;;;;;;;15.04;89.59;97880.03;10498387;28;20522;-58
2022/06/17 23:34:58;;;;;;;;;;;;;;;14.90;90.61;97882.88;10497751;28;20028;-58
2022/06/17 23:40:01;;;;;;;12.10;9.23;;;;;;;14.91;90.79;97887.19;10494596;28;19958;-58
2022/06/17 23:45:02;;;;;;;14.40;9.18;;;;;;;14.92;90.76;97881.09;10496999;28;20051;-57
2022/06/17 23:50:01;;;;;;;13.43;9.63;;;;;;;14.96;90.79;97884.50;10499581;28;20065;-58
2022/06/17 23:55:01;;;;;;;14.43;9.07;;;;;;;14.90;91.55;97887.25;10499027;28;20066;-58
